28  °F
Temperature
9  °F
  Dewpoint
   Humidity
Temp | Dewpoint | Humidity
13  km/h
Wind Speed
8  mph
Wind Speed
7  kts
Wind Speed
350°
Due North

Wind Speed
Partly Cloudy
Conditions
Pressure 1009.9 (hPa) - 29.7 (in)
Visibility 10.0 (mi) - 16.1 (km)

Current Conditions
KAPA
Location Centennial 6km (3.2mi)
Metar :KAPA 211953Z 35007KT 10SM FEW070 BKN220 M02/M13 A2970 RMK AO2 SLP099 T10221128
21-02-2019 @ 19:53Z

Airport
https://www.checkwx.com/
  Metar Aviation API Data Provided by https://www.checkwx.com/ CSS/SVG/PHP scripts by weather34.com © 2015-2019